sensor_id;sensor_type;location;lat;lon;timestamp;P1;durP1;ratioP1;P2;durP2;ratioP2
49458;SDS011;35354;51.296;16.924;2023-09-19T00:00:33;5.93;;;3.67;;
49458;SDS011;35354;51.296;16.924;2023-09-19T00:02:59;3.58;;;3.03;;
49458;SDS011;35354;51.296;16.924;2023-09-19T00:05:28;5.22;;;2.88;;
49458;SDS011;35354;51.296;16.924;2023-09-19T00:07:55;4.05;;;3.03;;
49458;SDS011;35354;51.296;16.924;2023-09-19T00:10:25;3.15;;;2.67;;
49458;SDS011;35354;51.296;16.924;2023-09-19T00:12:52;6.18;;;3.08;;
49458;SDS011;35354;51.296;16.924;2023-09-19T00:15:27;4.93;;;2.90;;
49458;SDS011;35354;51.296;16.924;2023-09-19T00:17:55;4.38;;;3.47;;
49458;SDS011;35354;51.296;16.924;2023-09-19T00:20:21;4.88;;;2.90;;
49458;SDS011;35354;51.296;16.924;2023-09-19T00:22:48;4.80;;;3.30;;
49458;SDS011;35354;51.296;16.924;2023-09-19T00:25:17;3.38;;;2.70;;
49458;SDS011;35354;51.296;16.924;2023-09-19T00:27:42;4.20;;;2.85;;
49458;SDS011;35354;51.296;16.924;2023-09-19T00:30:09;4.68;;;3.08;;
49458;SDS011;35354;51.296;16.924;2023-09-19T00:32:39;4.40;;;2.60;;
49458;SDS011;35354;51.296;16.924;2023-09-19T00:35:06;3.70;;;2.58;;
49458;SDS011;35354;51.296;16.924;2023-09-19T00:37:33;7.32;;;2.80;;
49458;SDS011;35354;51.296;16.924;2023-09-19T00:39:59;2.90;;;2.60;;
49458;SDS011;35354;51.296;16.924;2023-09-19T00:42:24;3.33;;;2.53;;
49458;SDS011;35354;51.296;16.924;2023-09-19T00:44:50;4.10;;;2.47;;
49458;SDS011;35354;51.296;16.924;2023-09-19T00:47:17;3.78;;;2.45;;
49458;SDS011;35354;51.296;16.924;2023-09-19T00:49:46;3.80;;;2.70;;
49458;SDS011;35354;51.296;16.924;2023-09-19T00:52:15;3.78;;;2.38;;
49458;SDS011;35354;51.296;16.924;2023-09-19T00:54:44;4.25;;;2.45;;
49458;SDS011;35354;51.296;16.924;2023-09-19T00:57:10;5.35;;;2.08;;
49458;SDS011;35354;51.296;16.924;2023-09-19T00:59:36;5.07;;;2.58;;
49458;SDS011;35354;51.296;16.924;2023-09-19T01:02:02;2.70;;;2.40;;
49458;SDS011;35354;51.296;16.924;2023-09-19T01:04:28;5.50;;;2.60;;
49458;SDS011;35354;51.296;16.924;2023-09-19T01:06:53;4.45;;;2.92;;
49458;SDS011;35354;51.296;16.924;2023-09-19T01:09:19;2.75;;;2.20;;
49458;SDS011;35354;51.296;16.924;2023-09-19T01:11:46;3.70;;;2.75;;
49458;SDS011;35354;51.296;16.924;2023-09-19T01:19:53;3.42;;;2.47;;
49458;SDS011;35354;51.296;16.924;2023-09-19T01:30:57;5.00;;;2.88;;
49458;SDS011;35354;51.296;16.924;2023-09-19T01:33:25;4.40;;;2.92;;
49458;SDS011;35354;51.296;16.924;2023-09-19T01:35:51;3.55;;;2.80;;
49458;SDS011;35354;51.296;16.924;2023-09-19T01:48:05;7.60;;;3.03;;
49458;SDS011;35354;51.296;16.924;2023-09-19T01:53:15;4.32;;;2.58;;
49458;SDS011;35354;51.296;16.924;2023-09-19T01:55:49;4.60;;;2.65;;
49458;SDS011;35354;51.296;16.924;2023-09-19T01:58:24;3.50;;;2.70;;
49458;SDS011;35354;51.296;16.924;2023-09-19T02:00:58;4.68;;;2.78;;
49458;SDS011;35354;51.296;16.924;2023-09-19T02:03:25;6.47;;;2.70;;
49458;SDS011;35354;51.296;16.924;2023-09-19T02:05:53;6.68;;;3.58;;
49458;SDS011;35354;51.296;16.924;2023-09-19T02:08:19;3.72;;;2.58;;
49458;SDS011;35354;51.296;16.924;2023-09-19T02:10:48;4.28;;;2.75;;
49458;SDS011;35354;51.296;16.924;2023-09-19T02:13:15;3.63;;;2.92;;
49458;SDS011;35354;51.296;16.924;2023-09-19T02:15:42;5.25;;;2.88;;
49458;SDS011;35354;51.296;16.924;2023-09-19T02:18:09;4.18;;;2.63;;
49458;SDS011;35354;51.296;16.924;2023-09-19T02:20:34;3.13;;;2.65;;
49458;SDS011;35354;51.296;16.924;2023-09-19T02:23:00;4.43;;;3.05;;
49458;SDS011;35354;51.296;16.924;2023-09-19T02:25:25;4.43;;;3.15;;
49458;SDS011;35354;51.296;16.924;2023-09-19T02:27:52;3.35;;;2.70;;
49458;SDS011;35354;51.296;16.924;2023-09-19T02:30:19;4.20;;;3.05;;
49458;SDS011;35354;51.296;16.924;2023-09-19T02:32:46;5.03;;;3.05;;
49458;SDS011;35354;51.296;16.924;2023-09-19T02:35:11;3.75;;;3.00;;
49458;SDS011;35354;51.296;16.924;2023-09-19T02:37:37;4.40;;;3.05;;
49458;SDS011;35354;51.296;16.924;2023-09-19T02:40:03;4.53;;;2.97;;
49458;SDS011;35354;51.296;16.924;2023-09-19T02:42:43;7.15;;;3.08;;
49458;SDS011;35354;51.296;16.924;2023-09-19T02:45:13;3.63;;;2.90;;
49458;SDS011;35354;51.296;16.924;2023-09-19T02:47:40;4.10;;;3.08;;
49458;SDS011;35354;51.296;16.924;2023-09-19T02:50:05;7.03;;;3.25;;
49458;SDS011;35354;51.296;16.924;2023-09-19T02:52:31;3.63;;;2.95;;
49458;SDS011;35354;51.296;16.924;2023-09-19T02:54:56;2.95;;;2.42;;
49458;SDS011;35354;51.296;16.924;2023-09-19T02:57:22;6.82;;;3.33;;
49458;SDS011;35354;51.296;16.924;2023-09-19T02:59:49;4.13;;;2.90;;
49458;SDS011;35354;51.296;16.924;2023-09-19T03:02:14;5.28;;;3.00;;
49458;SDS011;35354;51.296;16.924;2023-09-19T03:04:40;4.25;;;3.42;;
49458;SDS011;35354;51.296;16.924;2023-09-19T03:07:06;4.15;;;3.35;;
49458;SDS011;35354;51.296;16.924;2023-09-19T03:09:31;3.92;;;2.85;;
49458;SDS011;35354;51.296;16.924;2023-09-19T03:11:57;4.82;;;3.60;;
49458;SDS011;35354;51.296;16.924;2023-09-19T03:14:22;4.15;;;3.08;;
49458;SDS011;35354;51.296;16.924;2023-09-19T03:16:48;3.92;;;2.80;;
49458;SDS011;35354;51.296;16.924;2023-09-19T03:19:14;6.20;;;3.28;;
49458;SDS011;35354;51.296;16.924;2023-09-19T03:21:40;5.40;;;3.58;;
49458;SDS011;35354;51.296;16.924;2023-09-19T03:24:05;4.90;;;2.97;;
49458;SDS011;35354;51.296;16.924;2023-09-19T03:26:31;3.53;;;3.22;;
49458;SDS011;35354;51.296;16.924;2023-09-19T03:28:58;4.18;;;3.20;;
49458;SDS011;35354;51.296;16.924;2023-09-19T03:31:23;6.05;;;3.80;;
49458;SDS011;35354;51.296;16.924;2023-09-19T03:33:49;4.88;;;3.72;;
49458;SDS011;35354;51.296;16.924;2023-09-19T03:36:14;4.80;;;3.95;;
49458;SDS011;35354;51.296;16.924;2023-09-19T03:38:39;6.25;;;4.20;;
49458;SDS011;35354;51.296;16.924;2023-09-19T03:41:05;6.05;;;3.95;;
49458;SDS011;35354;51.296;16.924;2023-09-19T03:43:31;6.85;;;4.82;;
49458;SDS011;35354;51.296;16.924;2023-09-19T03:46:00;7.38;;;4.72;;
49458;SDS011;35354;51.296;16.924;2023-09-19T03:48:27;5.57;;;4.63;;
49458;SDS011;35354;51.296;16.924;2023-09-19T03:50:52;5.97;;;4.97;;
49458;SDS011;35354;51.296;16.924;2023-09-19T03:53:19;5.65;;;5.05;;
49458;SDS011;35354;51.296;16.924;2023-09-19T03:55:45;6.50;;;4.88;;
49458;SDS011;35354;51.296;16.924;2023-09-19T03:58:11;7.68;;;5.38;;
49458;SDS011;35354;51.296;16.924;2023-09-19T04:00:36;8.35;;;5.60;;
49458;SDS011;35354;51.296;16.924;2023-09-19T04:03:02;8.48;;;4.72;;
49458;SDS011;35354;51.296;16.924;2023-09-19T04:05:30;6.93;;;4.53;;
49458;SDS011;35354;51.296;16.924;2023-09-19T04:07:56;7.47;;;5.22;;
49458;SDS011;35354;51.296;16.924;2023-09-19T04:10:21;8.77;;;5.35;;
49458;SDS011;35354;51.296;16.924;2023-09-19T04:12:50;7.70;;;4.68;;
49458;SDS011;35354;51.296;16.924;2023-09-19T04:15:17;7.10;;;4.68;;
49458;SDS011;35354;51.296;16.924;2023-09-19T04:17:42;7.57;;;4.50;;
49458;SDS011;35354;51.296;16.924;2023-09-19T04:20:08;5.95;;;4.85;;
49458;SDS011;35354;51.296;16.924;2023-09-19T04:22:34;9.00;;;5.28;;
49458;SDS011;35354;51.296;16.924;2023-09-19T04:24:59;7.25;;;5.15;;
49458;SDS011;35354;51.296;16.924;2023-09-19T04:27:24;6.03;;;5.00;;
49458;SDS011;35354;51.296;16.924;2023-09-19T04:29:50;8.57;;;5.25;;
49458;SDS011;35354;51.296;16.924;2023-09-19T04:32:18;8.95;;;5.93;;
49458;SDS011;35354;51.296;16.924;2023-09-19T04:34:43;7.15;;;6.28;;
49458;SDS011;35354;51.296;16.924;2023-09-19T04:37:08;6.47;;;5.35;;
49458;SDS011;35354;51.296;16.924;2023-09-19T04:39:34;7.80;;;5.28;;
49458;SDS011;35354;51.296;16.924;2023-09-19T04:41:59;5.95;;;5.38;;
49458;SDS011;35354;51.296;16.924;2023-09-19T04:44:24;8.32;;;5.72;;
49458;SDS011;35354;51.296;16.924;2023-09-19T04:46:50;7.45;;;6.15;;
49458;SDS011;35354;51.296;16.924;2023-09-19T04:49:15;8.95;;;5.43;;
49458;SDS011;35354;51.296;16.924;2023-09-19T04:51:41;6.38;;;5.20;;
49458;SDS011;35354;51.296;16.924;2023-09-19T04:54:07;7.07;;;5.40;;
49458;SDS011;35354;51.296;16.924;2023-09-19T04:56:32;7.15;;;5.45;;
49458;SDS011;35354;51.296;16.924;2023-09-19T04:58:59;6.68;;;5.63;;
49458;SDS011;35354;51.296;16.924;2023-09-19T05:01:25;6.32;;;4.65;;
49458;SDS011;35354;51.296;16.924;2023-09-19T05:03:50;7.03;;;5.57;;
49458;SDS011;35354;51.296;16.924;2023-09-19T05:06:18;9.60;;;5.68;;
49458;SDS011;35354;51.296;16.924;2023-09-19T05:08:46;6.95;;;5.63;;
49458;SDS011;35354;51.296;16.924;2023-09-19T05:11:18;6.68;;;5.63;;
49458;SDS011;35354;51.296;16.924;2023-09-19T05:13:46;6.75;;;5.32;;
49458;SDS011;35354;51.296;16.924;2023-09-19T05:16:12;6.68;;;5.10;;
49458;SDS011;35354;51.296;16.924;2023-09-19T05:18:37;6.43;;;4.53;;
49458;SDS011;35354;51.296;16.924;2023-09-19T05:21:03;7.90;;;4.70;;
49458;SDS011;35354;51.296;16.924;2023-09-19T05:23:28;6.47;;;4.47;;
49458;SDS011;35354;51.296;16.924;2023-09-19T05:25:53;7.38;;;4.60;;
49458;SDS011;35354;51.296;16.924;2023-09-19T05:28:19;6.38;;;4.88;;
49458;SDS011;35354;51.296;16.924;2023-09-19T05:30:45;6.40;;;4.55;;
49458;SDS011;35354;51.296;16.924;2023-09-19T05:33:11;4.88;;;4.18;;
49458;SDS011;35354;51.296;16.924;2023-09-19T05:35:36;5.65;;;4.72;;
49458;SDS011;35354;51.296;16.924;2023-09-19T05:38:04;6.90;;;4.50;;
49458;SDS011;35354;51.296;16.924;2023-09-19T05:40:33;5.68;;;4.53;;
49458;SDS011;35354;51.296;16.924;2023-09-19T05:42:59;6.20;;;4.45;;
49458;SDS011;35354;51.296;16.924;2023-09-19T05:45:25;5.80;;;4.53;;
49458;SDS011;35354;51.296;16.924;2023-09-19T05:47:51;5.53;;;3.92;;
49458;SDS011;35354;51.296;16.924;2023-09-19T05:50:18;3.85;;;3.53;;
49458;SDS011;35354;51.296;16.924;2023-09-19T05:52:50;6.65;;;3.90;;
49458;SDS011;35354;51.296;16.924;2023-09-19T05:55:17;3.97;;;3.55;;
49458;SDS011;35354;51.296;16.924;2023-09-19T05:57:42;5.05;;;3.63;;
49458;SDS011;35354;51.296;16.924;2023-09-19T06:00:08;6.05;;;3.45;;
49458;SDS011;35354;51.296;16.924;2023-09-19T06:02:35;7.10;;;3.70;;
49458;SDS011;35354;51.296;16.924;2023-09-19T06:05:03;3.92;;;3.47;;
49458;SDS011;35354;51.296;16.924;2023-09-19T06:07:31;4.95;;;3.40;;
49458;SDS011;35354;51.296;16.924;2023-09-19T06:10:01;7.85;;;3.70;;
49458;SDS011;35354;51.296;16.924;2023-09-19T06:12:33;5.45;;;3.72;;
49458;SDS011;35354;51.296;16.924;2023-09-19T06:15:03;4.05;;;3.28;;
49458;SDS011;35354;51.296;16.924;2023-09-19T06:17:30;3.95;;;3.55;;
49458;SDS011;35354;51.296;16.924;2023-09-19T06:19:56;5.05;;;3.30;;
49458;SDS011;35354;51.296;16.924;2023-09-19T06:22:21;4.05;;;3.40;;
49458;SDS011;35354;51.296;16.924;2023-09-19T06:24:46;7.03;;;3.72;;
49458;SDS011;35354;51.296;16.924;2023-09-19T06:27:12;4.80;;;4.00;;
49458;SDS011;35354;51.296;16.924;2023-09-19T06:29:38;4.32;;;3.38;;
49458;SDS011;35354;51.296;16.924;2023-09-19T06:32:07;4.20;;;3.72;;
49458;SDS011;35354;51.296;16.924;2023-09-19T06:34:33;6.88;;;3.55;;
49458;SDS011;35354;51.296;16.924;2023-09-19T06:36:59;5.03;;;3.30;;
49458;SDS011;35354;51.296;16.924;2023-09-19T06:39:25;8.85;;;3.55;;
49458;SDS011;35354;51.296;16.924;2023-09-19T06:41:51;6.00;;;3.50;;
49458;SDS011;35354;51.296;16.924;2023-09-19T06:44:18;5.47;;;3.58;;
49458;SDS011;35354;51.296;16.924;2023-09-19T06:46:45;5.97;;;3.50;;
49458;SDS011;35354;51.296;16.924;2023-09-19T06:49:14;3.70;;;3.40;;
49458;SDS011;35354;51.296;16.924;2023-09-19T06:51:40;4.68;;;3.08;;
49458;SDS011;35354;51.296;16.924;2023-09-19T06:54:06;8.02;;;3.42;;
49458;SDS011;35354;51.296;16.924;2023-09-19T06:56:32;5.40;;;3.20;;
49458;SDS011;35354;51.296;16.924;2023-09-19T06:58:57;4.38;;;2.78;;
49458;SDS011;35354;51.296;16.924;2023-09-19T07:01:23;6.63;;;3.10;;
49458;SDS011;35354;51.296;16.924;2023-09-19T07:03:48;3.33;;;2.80;;
49458;SDS011;35354;51.296;16.924;2023-09-19T07:06:14;5.38;;;2.85;;
49458;SDS011;35354;51.296;16.924;2023-09-19T07:08:39;4.80;;;3.05;;
49458;SDS011;35354;51.296;16.924;2023-09-19T07:11:04;3.22;;;2.50;;
49458;SDS011;35354;51.296;16.924;2023-09-19T07:13:31;3.45;;;2.15;;
49458;SDS011;35354;51.296;16.924;2023-09-19T07:15:58;6.60;;;2.85;;
49458;SDS011;35354;51.296;16.924;2023-09-19T07:18:24;3.55;;;2.42;;
49458;SDS011;35354;51.296;16.924;2023-09-19T07:20:50;2.60;;;2.35;;
49458;SDS011;35354;51.296;16.924;2023-09-19T07:23:16;3.00;;;2.60;;
49458;SDS011;35354;51.296;16.924;2023-09-19T07:25:43;2.42;;;2.20;;
49458;SDS011;35354;51.296;16.924;2023-09-19T07:28:09;3.10;;;2.55;;
49458;SDS011;35354;51.296;16.924;2023-09-19T07:30:38;4.18;;;2.33;;
49458;SDS011;35354;51.296;16.924;2023-09-19T07:33:04;4.47;;;2.70;;
49458;SDS011;35354;51.296;16.924;2023-09-19T07:35:30;2.38;;;2.17;;
49458;SDS011;35354;51.296;16.924;2023-09-19T07:37:56;3.08;;;2.58;;
49458;SDS011;35354;51.296;16.924;2023-09-19T07:40:23;4.38;;;2.95;;
49458;SDS011;35354;51.296;16.924;2023-09-19T07:42:51;3.03;;;2.67;;
49458;SDS011;35354;51.296;16.924;2023-09-19T07:45:17;2.97;;;2.20;;
49458;SDS011;35354;51.296;16.924;2023-09-19T07:50:11;2.85;;;2.45;;
49458;SDS011;35354;51.296;16.924;2023-09-19T07:52:37;3.80;;;2.38;;
49458;SDS011;35354;51.296;16.924;2023-09-19T07:55:04;3.38;;;2.30;;
49458;SDS011;35354;51.296;16.924;2023-09-19T07:57:33;3.35;;;2.55;;
49458;SDS011;35354;51.296;16.924;2023-09-19T07:59:59;4.07;;;2.60;;
49458;SDS011;35354;51.296;16.924;2023-09-19T08:02:25;3.83;;;2.47;;
49458;SDS011;35354;51.296;16.924;2023-09-19T08:04:50;5.53;;;2.40;;
49458;SDS011;35354;51.296;16.924;2023-09-19T08:07:17;3.33;;;2.17;;
49458;SDS011;35354;51.296;16.924;2023-09-19T08:09:43;2.83;;;2.53;;
49458;SDS011;35354;51.296;16.924;2023-09-19T08:12:13;3.15;;;2.58;;
49458;SDS011;35354;51.296;16.924;2023-09-19T08:14:40;3.65;;;2.42;;
49458;SDS011;35354;51.296;16.924;2023-09-19T08:17:06;3.15;;;2.55;;
49458;SDS011;35354;51.296;16.924;2023-09-19T08:19:33;4.90;;;3.35;;
49458;SDS011;35354;51.296;16.924;2023-09-19T08:21:58;4.07;;;2.78;;
49458;SDS011;35354;51.296;16.924;2023-09-19T08:24:25;4.03;;;2.50;;
49458;SDS011;35354;51.296;16.924;2023-09-19T08:26:53;3.45;;;2.60;;
49458;SDS011;35354;51.296;16.924;2023-09-19T08:29:22;2.90;;;2.58;;
49458;SDS011;35354;51.296;16.924;2023-09-19T08:31:54;3.10;;;2.58;;
49458;SDS011;35354;51.296;16.924;2023-09-19T08:34:21;3.42;;;2.80;;
49458;SDS011;35354;51.296;16.924;2023-09-19T08:36:46;3.65;;;2.65;;
49458;SDS011;35354;51.296;16.924;2023-09-19T08:39:13;3.83;;;2.47;;
49458;SDS011;35354;51.296;16.924;2023-09-19T08:41:38;3.40;;;2.65;;
49458;SDS011;35354;51.296;16.924;2023-09-19T08:44:04;3.55;;;2.40;;
49458;SDS011;35354;51.296;16.924;2023-09-19T08:46:30;5.20;;;2.63;;
49458;SDS011;35354;51.296;16.924;2023-09-19T08:49:08;2.75;;;2.45;;
49458;SDS011;35354;51.296;16.924;2023-09-19T08:51:53;5.22;;;2.83;;
49458;SDS011;35354;51.296;16.924;2023-09-19T08:54:32;3.95;;;2.50;;
49458;SDS011;35354;51.296;16.924;2023-09-19T08:57:05;2.30;;;2.10;;
49458;SDS011;35354;51.296;16.924;2023-09-19T09:02:03;3.95;;;2.38;;
49458;SDS011;35354;51.296;16.924;2023-09-19T09:04:29;4.40;;;2.50;;
49458;SDS011;35354;51.296;16.924;2023-09-19T09:06:55;3.10;;;2.38;;
49458;SDS011;35354;51.296;16.924;2023-09-19T09:09:23;3.92;;;2.28;;
49458;SDS011;35354;51.296;16.924;2023-09-19T09:11:48;7.78;;;2.53;;
49458;SDS011;35354;51.296;16.924;2023-09-19T09:14:18;5.00;;;2.65;;
49458;SDS011;35354;51.296;16.924;2023-09-19T09:16:46;3.15;;;2.20;;
49458;SDS011;35354;51.296;16.924;2023-09-19T09:19:13;3.50;;;2.38;;
49458;SDS011;35354;51.296;16.924;2023-09-19T09:21:39;2.70;;;2.20;;
49458;SDS011;35354;51.296;16.924;2023-09-19T09:27:26;7.63;;;2.60;;
49458;SDS011;35354;51.296;16.924;2023-09-19T09:29:52;3.13;;;2.30;;
49458;SDS011;35354;51.296;16.924;2023-09-19T09:32:21;4.63;;;2.20;;
49458;SDS011;35354;51.296;16.924;2023-09-19T09:35:00;2.47;;;2.25;;
49458;SDS011;35354;51.296;16.924;2023-09-19T09:37:27;3.33;;;2.40;;
49458;SDS011;35354;51.296;16.924;2023-09-19T09:45:13;3.03;;;2.45;;
49458;SDS011;35354;51.296;16.924;2023-09-19T09:47:41;3.67;;;2.65;;
49458;SDS011;35354;51.296;16.924;2023-09-19T09:50:31;4.20;;;2.30;;
49458;SDS011;35354;51.296;16.924;2023-09-19T09:53:25;5.57;;;2.50;;
49458;SDS011;35354;51.296;16.924;2023-09-19T09:58:26;5.45;;;2.30;;
49458;SDS011;35354;51.296;16.924;2023-09-19T10:00:54;2.70;;;2.10;;
49458;SDS011;35354;51.296;16.924;2023-09-19T10:03:43;4.38;;;2.45;;
49458;SDS011;35354;51.296;16.924;2023-09-19T10:06:12;3.45;;;2.22;;
49458;SDS011;35354;51.296;16.924;2023-09-19T10:09:04;2.78;;;2.40;;
49458;SDS011;35354;51.296;16.924;2023-09-19T10:14:12;3.45;;;2.13;;
49458;SDS011;35354;51.296;16.924;2023-09-19T10:16:40;4.10;;;2.45;;
49458;SDS011;35354;51.296;16.924;2023-09-19T10:19:23;4.80;;;2.35;;
49458;SDS011;35354;51.296;16.924;2023-09-19T10:21:55;3.28;;;2.00;;
49458;SDS011;35354;51.296;16.924;2023-09-19T10:24:22;5.07;;;2.60;;
49458;SDS011;35354;51.296;16.924;2023-09-19T10:26:48;2.50;;;2.22;;
49458;SDS011;35354;51.296;16.924;2023-09-19T10:29:15;4.03;;;2.47;;
49458;SDS011;35354;51.296;16.924;2023-09-19T10:31:44;5.18;;;3.60;;
49458;SDS011;35354;51.296;16.924;2023-09-19T10:34:13;2.63;;;2.42;;
49458;SDS011;35354;51.296;16.924;2023-09-19T10:36:40;4.78;;;2.50;;
49458;SDS011;35354;51.296;16.924;2023-09-19T10:39:09;2.90;;;1.95;;
49458;SDS011;35354;51.296;16.924;2023-09-19T10:41:38;2.55;;;1.80;;
49458;SDS011;35354;51.296;16.924;2023-09-19T10:44:04;3.05;;;2.00;;
49458;SDS011;35354;51.296;16.924;2023-09-19T10:46:31;2.30;;;2.00;;
49458;SDS011;35354;51.296;16.924;2023-09-19T10:49:00;2.75;;;2.08;;
49458;SDS011;35354;51.296;16.924;2023-09-19T10:51:31;3.63;;;2.10;;
49458;SDS011;35354;51.296;16.924;2023-09-19T10:54:10;5.75;;;2.30;;
49458;SDS011;35354;51.296;16.924;2023-09-19T10:56:38;2.78;;;2.08;;
49458;SDS011;35354;51.296;16.924;2023-09-19T10:59:10;3.33;;;1.60;;
49458;SDS011;35354;51.296;16.924;2023-09-19T11:01:47;2.38;;;1.95;;
49458;SDS011;35354;51.296;16.924;2023-09-19T11:09:43;2.92;;;2.10;;
49458;SDS011;35354;51.296;16.924;2023-09-19T11:15:06;3.38;;;1.70;;
49458;SDS011;35354;51.296;16.924;2023-09-19T11:17:39;2.47;;;1.92;;
49458;SDS011;35354;51.296;16.924;2023-09-19T11:30:33;3.28;;;2.00;;
49458;SDS011;35354;51.296;16.924;2023-09-19T11:35:58;3.25;;;1.90;;
49458;SDS011;35354;51.296;16.924;2023-09-19T11:43:50;2.15;;;1.70;;
49458;SDS011;35354;51.296;16.924;2023-09-19T11:46:19;3.85;;;1.73;;
49458;SDS011;35354;51.296;16.924;2023-09-19T11:48:49;3.17;;;1.60;;
49458;SDS011;35354;51.296;16.924;2023-09-19T11:51:16;2.00;;;1.83;;
49458;SDS011;35354;51.296;16.924;2023-09-19T11:53:56;2.80;;;1.80;;
49458;SDS011;35354;51.296;16.924;2023-09-19T11:56:25;1.70;;;1.60;;
49458;SDS011;35354;51.296;16.924;2023-09-19T11:58:53;2.10;;;1.77;;
49458;SDS011;35354;51.296;16.924;2023-09-19T12:01:21;1.52;;;1.42;;
49458;SDS011;35354;51.296;16.924;2023-09-19T12:03:52;2.03;;;1.63;;
49458;SDS011;35354;51.296;16.924;2023-09-19T12:06:19;4.55;;;2.00;;
49458;SDS011;35354;51.296;16.924;2023-09-19T12:08:47;1.63;;;1.52;;
49458;SDS011;35354;51.296;16.924;2023-09-19T12:11:14;2.05;;;1.85;;
49458;SDS011;35354;51.296;16.924;2023-09-19T12:13:46;3.67;;;1.75;;
49458;SDS011;35354;51.296;16.924;2023-09-19T12:18:40;2.38;;;1.83;;
49458;SDS011;35354;51.296;16.924;2023-09-19T12:21:20;2.75;;;1.80;;
49458;SDS011;35354;51.296;16.924;2023-09-19T12:23:57;1.75;;;1.60;;
49458;SDS011;35354;51.296;16.924;2023-09-19T12:26:44;2.67;;;1.80;;
49458;SDS011;35354;51.296;16.924;2023-09-19T12:29:15;2.92;;;1.88;;
49458;SDS011;35354;51.296;16.924;2023-09-19T12:34:28;1.80;;;1.60;;
49458;SDS011;35354;51.296;16.924;2023-09-19T12:37:09;1.85;;;1.73;;
49458;SDS011;35354;51.296;16.924;2023-09-19T12:39:47;2.45;;;1.98;;
49458;SDS011;35354;51.296;16.924;2023-09-19T12:42:14;3.80;;;2.03;;
49458;SDS011;35354;51.296;16.924;2023-09-19T12:44:42;2.63;;;1.95;;
49458;SDS011;35354;51.296;16.924;2023-09-19T12:47:12;3.45;;;2.08;;
49458;SDS011;35354;51.296;16.924;2023-09-19T12:52:37;2.55;;;1.90;;
49458;SDS011;35354;51.296;16.924;2023-09-19T12:55:03;2.78;;;1.80;;
49458;SDS011;35354;51.296;16.924;2023-09-19T12:57:30;3.50;;;1.70;;
49458;SDS011;35354;51.296;16.924;2023-09-19T12:59:59;6.07;;;2.28;;
49458;SDS011;35354;51.296;16.924;2023-09-19T13:02:27;1.83;;;1.60;;
49458;SDS011;35354;51.296;16.924;2023-09-19T13:04:53;1.88;;;1.77;;
49458;SDS011;35354;51.296;16.924;2023-09-19T13:10:14;1.88;;;1.77;;
49458;SDS011;35354;51.296;16.924;2023-09-19T13:12:41;2.20;;;1.95;;
49458;SDS011;35354;51.296;16.924;2023-09-19T13:15:12;2.40;;;1.60;;
49458;SDS011;35354;51.296;16.924;2023-09-19T13:17:51;2.08;;;1.65;;
49458;SDS011;35354;51.296;16.924;2023-09-19T13:20:21;3.10;;;2.05;;
49458;SDS011;35354;51.296;16.924;2023-09-19T13:22:52;1.50;;;1.40;;
49458;SDS011;35354;51.296;16.924;2023-09-19T13:25:20;1.95;;;1.60;;
49458;SDS011;35354;51.296;16.924;2023-09-19T13:27:50;1.50;;;1.30;;
49458;SDS011;35354;51.296;16.924;2023-09-19T13:30:17;1.70;;;1.60;;
49458;SDS011;35354;51.296;16.924;2023-09-19T13:32:43;2.35;;;1.70;;
49458;SDS011;35354;51.296;16.924;2023-09-19T13:35:09;1.70;;;1.42;;
49458;SDS011;35354;51.296;16.924;2023-09-19T13:37:35;3.13;;;1.67;;
49458;SDS011;35354;51.296;16.924;2023-09-19T13:40:03;2.53;;;2.03;;
49458;SDS011;35354;51.296;16.924;2023-09-19T13:42:30;2.28;;;1.95;;
49458;SDS011;35354;51.296;16.924;2023-09-19T13:44:55;2.33;;;2.00;;
49458;SDS011;35354;51.296;16.924;2023-09-19T13:47:21;2.50;;;1.60;;
49458;SDS011;35354;51.296;16.924;2023-09-19T13:49:49;1.60;;;1.50;;
49458;SDS011;35354;51.296;16.924;2023-09-19T13:52:17;2.00;;;1.80;;
49458;SDS011;35354;51.296;16.924;2023-09-19T13:54:43;3.10;;;1.52;;
49458;SDS011;35354;51.296;16.924;2023-09-19T13:57:09;1.77;;;1.67;;
49458;SDS011;35354;51.296;16.924;2023-09-19T13:59:34;3.30;;;1.50;;
49458;SDS011;35354;51.296;16.924;2023-09-19T14:02:00;3.45;;;1.80;;
49458;SDS011;35354;51.296;16.924;2023-09-19T14:04:27;1.88;;;1.45;;
49458;SDS011;35354;51.296;16.924;2023-09-19T14:06:53;1.92;;;1.40;;
49458;SDS011;35354;51.296;16.924;2023-09-19T14:09:19;2.30;;;1.52;;
49458;SDS011;35354;51.296;16.924;2023-09-19T14:11:44;2.42;;;1.70;;
49458;SDS011;35354;51.296;16.924;2023-09-19T14:14:12;2.65;;;1.60;;
49458;SDS011;35354;51.296;16.924;2023-09-19T14:16:37;2.33;;;1.85;;
49458;SDS011;35354;51.296;16.924;2023-09-19T14:19:06;2.25;;;1.50;;
49458;SDS011;35354;51.296;16.924;2023-09-19T14:21:33;1.63;;;1.52;;
49458;SDS011;35354;51.296;16.924;2023-09-19T14:23:58;1.52;;;1.30;;
49458;SDS011;35354;51.296;16.924;2023-09-19T14:26:23;2.47;;;1.65;;
49458;SDS011;35354;51.296;16.924;2023-09-19T14:28:49;3.80;;;1.60;;
49458;SDS011;35354;51.296;16.924;2023-09-19T14:31:14;1.73;;;1.50;;
49458;SDS011;35354;51.296;16.924;2023-09-19T14:33:40;1.80;;;1.45;;
49458;SDS011;35354;51.296;16.924;2023-09-19T14:36:07;2.42;;;1.48;;
49458;SDS011;35354;51.296;16.924;2023-09-19T14:38:36;2.17;;;1.65;;
49458;SDS011;35354;51.296;16.924;2023-09-19T14:41:02;2.22;;;1.60;;
49458;SDS011;35354;51.296;16.924;2023-09-19T14:43:29;3.22;;;1.90;;
49458;SDS011;35354;51.296;16.924;2023-09-19T14:46:04;1.80;;;1.42;;
49458;SDS011;35354;51.296;16.924;2023-09-19T14:48:35;2.60;;;1.75;;
49458;SDS011;35354;51.296;16.924;2023-09-19T14:51:04;2.03;;;1.80;;
49458;SDS011;35354;51.296;16.924;2023-09-19T14:53:34;6.50;;;1.50;;
49458;SDS011;35354;51.296;16.924;2023-09-19T14:56:00;2.30;;;1.33;;
49458;SDS011;35354;51.296;16.924;2023-09-19T14:58:28;1.60;;;1.50;;
49458;SDS011;35354;51.296;16.924;2023-09-19T15:01:02;2.13;;;1.80;;
49458;SDS011;35354;51.296;16.924;2023-09-19T15:03:28;2.72;;;1.60;;
49458;SDS011;35354;51.296;16.924;2023-09-19T15:05:59;1.60;;;1.40;;
49458;SDS011;35354;51.296;16.924;2023-09-19T15:08:45;1.58;;;1.42;;
49458;SDS011;35354;51.296;16.924;2023-09-19T15:11:15;1.73;;;1.50;;
49458;SDS011;35354;51.296;16.924;2023-09-19T15:13:42;2.35;;;1.67;;
49458;SDS011;35354;51.296;16.924;2023-09-19T15:16:09;1.58;;;1.48;;
49458;SDS011;35354;51.296;16.924;2023-09-19T15:18:38;1.75;;;1.55;;
49458;SDS011;35354;51.296;16.924;2023-09-19T15:21:09;1.87;;;1.67;;
49458;SDS011;35354;51.296;16.924;2023-09-19T15:23:35;1.95;;;1.65;;
49458;SDS011;35354;51.296;16.924;2023-09-19T15:26:02;2.05;;;1.60;;
49458;SDS011;35354;51.296;16.924;2023-09-19T15:28:28;2.75;;;1.70;;
49458;SDS011;35354;51.296;16.924;2023-09-19T15:31:01;2.55;;;2.00;;
49458;SDS011;35354;51.296;16.924;2023-09-19T15:33:29;2.05;;;1.85;;
49458;SDS011;35354;51.296;16.924;2023-09-19T15:38:28;2.00;;;1.77;;
49458;SDS011;35354;51.296;16.924;2023-09-19T15:40:53;2.05;;;1.70;;
49458;SDS011;35354;51.296;16.924;2023-09-19T15:43:19;2.17;;;1.70;;
49458;SDS011;35354;51.296;16.924;2023-09-19T15:45:46;2.15;;;1.95;;
49458;SDS011;35354;51.296;16.924;2023-09-19T15:48:13;2.65;;;1.85;;
49458;SDS011;35354;51.296;16.924;2023-09-19T15:50:38;2.45;;;1.70;;
49458;SDS011;35354;51.296;16.924;2023-09-19T15:53:07;2.05;;;1.48;;
49458;SDS011;35354;51.296;16.924;2023-09-19T15:55:34;3.60;;;1.70;;
49458;SDS011;35354;51.296;16.924;2023-09-19T15:58:04;2.97;;;1.63;;
49458;SDS011;35354;51.296;16.924;2023-09-19T16:00:31;3.70;;;1.92;;
49458;SDS011;35354;51.296;16.924;2023-09-19T16:02:59;4.35;;;1.80;;